Portales, NM

9:08 PM MDT on August 27, 2014 (GMT -0600)
Cannon Air Force Base | Change Station
CLOSE
Current Station
Airport
Location: Clovis Cannon AFB,
Elevation: 4295 ft
Nearby Weather Stations

Elev 4295 ft 34.38 °N, 103.32 °W | Updated 10 minutes ago

Clear
Clear
74 °F
Feels Like 74 °F
N
7
Wind Variable Wind from South

Today
High -- | Low -- °F
--% Chance of Precip.
Yesterday
High -- | Low -- °F
Precip. -- in
6:23 AM 7:24 PM
Waxing Crescent, 6% visible
Pressure 29.97 in
Visibility 10.0 miles
Clouds Clear
Dew Point 57 °F
Humidity 55%
Rainfall 0.02 in
Snow Depth Not available.
UV 0 out of 12
Pollen 8.90 out of 12
Air Quality Not available.
Flu Activity Not available.
METAR KCVS 280258Z AUTO 19006KT 10SM CLR 23/14 A3014 RMK AO2 SLP149 T02340140 53008 $

More Conditions Fewer Conditions

Pressure 29.97 in
Visibility 10.0 miles
Clouds Clear
Dew Point 57 °F
Humidity 55%
Rainfall 0.02 in
Snow Depth Not available.
UV 0 out of 12
Pollen 8.90 out of 12
Air Quality Not available.
Flu Activity Not available.
METAR KCVS 280258Z AUTO 19006KT 10SM CLR 23/14 A3014 RMK AO2 SLP149 T02340140 53008 $

More Conditions Fewer Conditions

10-Day Weather Forecast

Almanac

Astronomy

Aug. 27, 2014 Rise Set
Actual Time 6:23 AM MDT 7:24 PM MDT
Civil Twilight 5:57 AM MDT 7:50 PM MDT
Nautical Twilight 5:27 AM MDT 8:20 PM MDT
Astronomical Twilight 4:55 AM MDT 8:51 PM MDT
Moon 8:13 AM MDT (8/27) 8:26 PM MDT (8/27)
Length of Visible Light 13h 52m
Length of Day
13h 01m
Tomorrow will be 1m 58s shorter.
Waxing Crescent, 6% of the Moon is Illuminated
Today
Waxing Crescent
Sep 2
First Quarter
Sep 8
Full
Sep 15
Last Quarter
Sep 24
New

Today's Extremes

State Highs State Lows

Community

WunderPhotos

Upload Photos

1,747,888 photos uploaded!

Nearby

Snow Depth

Station Depth Elevation
Sierra Blanca 1 in 10280 ft
Wesner Springs 2 in 11120 ft
Santa Fe 0 in 11445 ft
Gallegos Peak 0 in 9800 ft
Tolby 0 in 10180 ft

Earthquake Activity

City Distance Mag. Time & Date
No recent earthquake activity has been reported nearby.
Minimum magnitude displayed is 2.5.

Coastal Water Temperatures

Place Temperature
No Stations Reporting

Nearby Weather Stations